sensor_id;sensor_type;location;lat;lon;timestamp;pressure;altitude;pressure_sealevel;temperature
48628;BMP280;34424;52.234;6.500;2023-04-25T00:00:13;61631.69;;;5.50
48628;BMP280;34424;52.234;6.500;2023-04-25T00:05:16;61627.47;;;5.46
48628;BMP280;34424;52.234;6.500;2023-04-25T00:10:19;61609.56;;;5.34
48628;BMP280;34424;52.234;6.500;2023-04-25T00:15:23;61599.44;;;5.21
48628;BMP280;34424;52.234;6.500;2023-04-25T00:20:26;61622.28;;;5.06
48628;BMP280;34424;52.234;6.500;2023-04-25T00:25:29;61580.41;;;4.86
48628;BMP280;34424;52.234;6.500;2023-04-25T00:30:33;61565.44;;;4.67
48628;BMP280;34424;52.234;6.500;2023-04-25T00:35:36;61539.91;;;4.37
48628;BMP280;34424;52.234;6.500;2023-04-25T00:40:38;61495.03;;;4.19
48628;BMP280;34424;52.234;6.500;2023-04-25T00:45:42;61481.75;;;4.04
48628;BMP280;34424;52.234;6.500;2023-04-25T00:50:51;61463.09;;;3.81
48628;BMP280;34424;52.234;6.500;2023-04-25T00:55:55;61442.47;;;3.81
48628;BMP280;34424;52.234;6.500;2023-04-25T01:00:59;61466.19;;;3.81
48628;BMP280;34424;52.234;6.500;2023-04-25T01:06:02;61490.59;;;3.87
48628;BMP280;34424;52.234;6.500;2023-04-25T01:11:05;61488.94;;;4.03
48628;BMP280;34424;52.234;6.500;2023-04-25T01:16:09;61500.97;;;4.10
48628;BMP280;34424;52.234;6.500;2023-04-25T01:21:13;61473.34;;;4.18
48628;BMP280;34424;52.234;6.500;2023-04-25T01:26:16;61499.25;;;4.23
48628;BMP280;34424;52.234;6.500;2023-04-25T01:31:19;61505.63;;;4.29
48628;BMP280;34424;52.234;6.500;2023-04-25T01:36:23;61539.81;;;4.35
48628;BMP280;34424;52.234;6.500;2023-04-25T01:41:26;61509.53;;;4.40
48628;BMP280;34424;52.234;6.500;2023-04-25T01:46:30;61526.13;;;4.44
48628;BMP280;34424;52.234;6.500;2023-04-25T01:51:34;61506.59;;;4.47
48628;BMP280;34424;52.234;6.500;2023-04-25T01:56:37;61509.19;;;4.47
48628;BMP280;34424;52.234;6.500;2023-04-25T02:01:40;61532.56;;;4.52
48628;BMP280;34424;52.234;6.500;2023-04-25T02:06:44;61532.56;;;4.52
48628;BMP280;34424;52.234;6.500;2023-04-25T02:11:47;61541.69;;;4.46
48628;BMP280;34424;52.234;6.500;2023-04-25T02:16:50;61535.19;;;4.35
48628;BMP280;34424;52.234;6.500;2023-04-25T02:21:54;61495.84;;;4.29
48628;BMP280;34424;52.234;6.500;2023-04-25T02:26:58;61511.84;;;4.30
48628;BMP280;34424;52.234;6.500;2023-04-25T02:32:01;61512.03;;;4.38
48628;BMP280;34424;52.234;6.500;2023-04-25T02:37:05;61578.88;;;4.47
48628;BMP280;34424;52.234;6.500;2023-04-25T02:42:07;61549.25;;;4.58
48628;BMP280;34424;52.234;6.500;2023-04-25T02:47:10;61530.91;;;4.68
48628;BMP280;34424;52.234;6.500;2023-04-25T02:52:14;61555.06;;;4.64
48628;BMP280;34424;52.234;6.500;2023-04-25T02:57:16;61565.78;;;4.59
48628;BMP280;34424;52.234;6.500;2023-04-25T03:02:19;61504.69;;;4.33
48628;BMP280;34424;52.234;6.500;2023-04-25T03:07:25;61482.13;;;3.99
48628;BMP280;34424;52.234;6.500;2023-04-25T03:12:28;61457.25;;;3.75
48628;BMP280;34424;52.234;6.500;2023-04-25T03:17:31;61455.34;;;3.61
48628;BMP280;34424;52.234;6.500;2023-04-25T03:22:36;61465.91;;;3.71
48628;BMP280;34424;52.234;6.500;2023-04-25T03:27:38;61501.59;;;3.76
48628;BMP280;34424;52.234;6.500;2023-04-25T03:32:41;61503.34;;;3.82
48628;BMP280;34424;52.234;6.500;2023-04-25T03:37:45;61485.88;;;3.85
48628;BMP280;34424;52.234;6.500;2023-04-25T03:42:47;61485.88;;;3.85
48628;BMP280;34424;52.234;6.500;2023-04-25T03:47:50;61477.16;;;3.87
48628;BMP280;34424;52.234;6.500;2023-04-25T03:52:54;61477.81;;;3.92
48628;BMP280;34424;52.234;6.500;2023-04-25T03:57:57;61487.22;;;3.96
48628;BMP280;34424;52.234;6.500;2023-04-25T04:03:00;61483.34;;;4.05
48628;BMP280;34424;52.234;6.500;2023-04-25T04:08:04;61512.34;;;4.11
48628;BMP280;34424;52.234;6.500;2023-04-25T04:13:07;61494.91;;;4.14
48628;BMP280;34424;52.234;6.500;2023-04-25T04:18:09;61524.78;;;4.13
48628;BMP280;34424;52.234;6.500;2023-04-25T04:23:13;61510.91;;;4.14
48628;BMP280;34424;52.234;6.500;2023-04-25T04:28:16;61490.28;;;4.14
48628;BMP280;34424;52.234;6.500;2023-04-25T04:33:19;61507.34;;;4.16
48628;BMP280;34424;52.234;6.500;2023-04-25T04:38:23;61505.34;;;4.19
48628;BMP280;34424;52.234;6.500;2023-04-25T04:43:26;61503.88;;;4.22
48628;BMP280;34424;52.234;6.500;2023-04-25T04:48:31;61492.66;;;4.26
48628;BMP280;34424;52.234;6.500;2023-04-25T04:53:36;61560.28;;;4.27
48628;BMP280;34424;52.234;6.500;2023-04-25T04:58:39;61488.03;;;4.27
48628;BMP280;34424;52.234;6.500;2023-04-25T05:03:42;61592.94;;;4.34
48628;BMP280;34424;52.234;6.500;2023-04-25T05:08:46;61499.66;;;4.38
48628;BMP280;34424;52.234;6.500;2023-04-25T05:13:50;61528.66;;;4.41
48628;BMP280;34424;52.234;6.500;2023-04-25T05:18:54;61529.97;;;4.52
48628;BMP280;34424;52.234;6.500;2023-04-25T05:23:58;61539.50;;;4.61
48628;BMP280;34424;52.234;6.500;2023-04-25T05:29:01;61567.72;;;4.74
48628;BMP280;34424;52.234;6.500;2023-04-25T05:34:03;61598.03;;;4.88
48628;BMP280;34424;52.234;6.500;2023-04-25T05:39:07;61568.22;;;4.94
48628;BMP280;34424;52.234;6.500;2023-04-25T05:44:10;61587.06;;;5.02
48628;BMP280;34424;52.234;6.500;2023-04-25T05:49:12;61557.66;;;5.04
48628;BMP280;34424;52.234;6.500;2023-04-25T05:54:19;61618.25;;;5.10
48628;BMP280;34424;52.234;6.500;2023-04-25T05:59:21;61617.59;;;5.24
48628;BMP280;34424;52.234;6.500;2023-04-25T06:04:25;61618.97;;;5.38
48628;BMP280;34424;52.234;6.500;2023-04-25T06:09:29;61649.03;;;5.42
48628;BMP280;34424;52.234;6.500;2023-04-25T06:14:31;61621.47;;;5.55
48628;BMP280;34424;52.234;6.500;2023-04-25T06:19:35;61643.63;;;5.71
48628;BMP280;34424;52.234;6.500;2023-04-25T06:24:39;61620.53;;;5.79
48628;BMP280;34424;52.234;6.500;2023-04-25T06:29:41;61699.19;;;6.00
48628;BMP280;34424;52.234;6.500;2023-04-25T06:34:44;61694.66;;;6.25
48628;BMP280;34424;52.234;6.500;2023-04-25T06:39:48;61717.88;;;6.42
48628;BMP280;34424;52.234;6.500;2023-04-25T06:44:51;61763.81;;;6.79
48628;BMP280;34424;52.234;6.500;2023-04-25T06:49:53;62008.31;;;9.63
48628;BMP280;34424;52.234;6.500;2023-04-25T06:54:58;62132.16;;;11.23
48628;BMP280;34424;52.234;6.500;2023-04-25T07:00:00;62242.03;;;12.38
48628;BMP280;34424;52.234;6.500;2023-04-25T07:05:07;62311.47;;;12.84
48628;BMP280;34424;52.234;6.500;2023-04-25T07:10:11;62368.28;;;13.26
48628;BMP280;34424;52.234;6.500;2023-04-25T07:15:13;62529.59;;;14.57
48628;BMP280;34424;52.234;6.500;2023-04-25T07:20:16;62325.66;;;12.88
48628;BMP280;34424;52.234;6.500;2023-04-25T07:25:20;62182.09;;;11.41
48628;BMP280;34424;52.234;6.500;2023-04-25T07:30:23;62090.00;;;10.53
48628;BMP280;34424;52.234;6.500;2023-04-25T07:35:25;62080.97;;;10.69
48628;BMP280;34424;52.234;6.500;2023-04-25T07:40:29;62028.03;;;10.31
48628;BMP280;34424;52.234;6.500;2023-04-25T07:45:32;62073.50;;;10.62
48628;BMP280;34424;52.234;6.500;2023-04-25T07:50:35;62016.53;;;10.05
48628;BMP280;34424;52.234;6.500;2023-04-25T07:55:39;62077.88;;;10.22
48628;BMP280;34424;52.234;6.500;2023-04-25T08:00:42;62138.75;;;10.65
48628;BMP280;34424;52.234;6.500;2023-04-25T08:05:45;62012.94;;;9.60
48628;BMP280;34424;52.234;6.500;2023-04-25T08:10:49;61953.25;;;9.20
48628;BMP280;34424;52.234;6.500;2023-04-25T08:15:52;61913.31;;;9.24
48628;BMP280;34424;52.234;6.500;2023-04-25T08:20:54;61927.19;;;8.92
48628;BMP280;34424;52.234;6.500;2023-04-25T08:25:58;61900.09;;;8.67
48628;BMP280;34424;52.234;6.500;2023-04-25T08:31:01;61989.38;;;9.77
48628;BMP280;34424;52.234;6.500;2023-04-25T08:36:04;62009.69;;;9.76
48628;BMP280;34424;52.234;6.500;2023-04-25T08:41:11;61979.59;;;9.58
48628;BMP280;34424;52.234;6.500;2023-04-25T08:46:17;61922.00;;;9.17
48628;BMP280;34424;52.234;6.500;2023-04-25T08:51:22;61982.00;;;9.25
48628;BMP280;34424;52.234;6.500;2023-04-25T08:56:27;61971.72;;;9.30
48628;BMP280;34424;52.234;6.500;2023-04-25T09:01:31;62002.97;;;9.80
48628;BMP280;34424;52.234;6.500;2023-04-25T09:06:34;62112.50;;;10.57
48628;BMP280;34424;52.234;6.500;2023-04-25T09:11:38;62114.84;;;10.69
48628;BMP280;34424;52.234;6.500;2023-04-25T09:17:05;62100.00;;;10.58
48628;BMP280;34424;52.234;6.500;2023-04-25T09:22:09;62139.03;;;11.55
48628;BMP280;34424;52.234;6.500;2023-04-25T09:27:18;62377.72;;;13.82
48628;BMP280;34424;52.234;6.500;2023-04-25T09:32:22;62519.19;;;14.62
48628;BMP280;34424;52.234;6.500;2023-04-25T09:37:27;62672.22;;;16.15
48628;BMP280;34424;52.234;6.500;2023-04-25T09:42:32;62582.69;;;15.18
48628;BMP280;34424;52.234;6.500;2023-04-25T09:47:37;62238.50;;;12.17
48628;BMP280;34424;52.234;6.500;2023-04-25T09:52:40;62095.31;;;10.58
48628;BMP280;34424;52.234;6.500;2023-04-25T09:57:46;61881.72;;;8.59
48628;BMP280;34424;52.234;6.500;2023-04-25T10:02:52;61781.66;;;7.31
48628;BMP280;34424;52.234;6.500;2023-04-25T10:07:57;61776.31;;;7.46
48628;BMP280;34424;52.234;6.500;2023-04-25T10:13:01;61855.66;;;8.09
48628;BMP280;34424;52.234;6.500;2023-04-25T10:18:04;61907.13;;;8.34
48628;BMP280;34424;52.234;6.500;2023-04-25T10:23:13;61839.34;;;8.01
48628;BMP280;34424;52.234;6.500;2023-04-25T10:28:20;61840.06;;;7.87
48628;BMP280;34424;52.234;6.500;2023-04-25T10:33:30;61898.50;;;8.65
48628;BMP280;34424;52.234;6.500;2023-04-25T10:38:34;62018.66;;;9.82
48628;BMP280;34424;52.234;6.500;2023-04-25T10:43:40;62055.38;;;9.95
48628;BMP280;34424;52.234;6.500;2023-04-25T10:48:46;62081.50;;;10.70
48628;BMP280;34424;52.234;6.500;2023-04-25T10:54:00;62251.19;;;12.24
48628;BMP280;34424;52.234;6.500;2023-04-25T10:59:06;62291.88;;;12.73
48628;BMP280;34424;52.234;6.500;2023-04-25T11:04:20;62346.84;;;13.28
48628;BMP280;34424;52.234;6.500;2023-04-25T11:09:24;62458.22;;;13.99
48628;BMP280;34424;52.234;6.500;2023-04-25T11:14:29;62497.66;;;14.34
48628;BMP280;34424;52.234;6.500;2023-04-25T11:19:31;62506.75;;;14.70
48628;BMP280;34424;52.234;6.500;2023-04-25T11:24:35;62473.94;;;13.99
48628;BMP280;34424;52.234;6.500;2023-04-25T11:29:40;62316.38;;;12.69
48628;BMP280;34424;52.234;6.500;2023-04-25T11:34:44;62237.75;;;12.32
48628;BMP280;34424;52.234;6.500;2023-04-25T11:39:47;62428.47;;;13.78
48628;BMP280;34424;52.234;6.500;2023-04-25T11:44:51;62453.41;;;13.95
48628;BMP280;34424;52.234;6.500;2023-04-25T11:49:58;62444.81;;;13.84
48628;BMP280;34424;52.234;6.500;2023-04-25T11:55:01;62453.03;;;14.02
48628;BMP280;34424;52.234;6.500;2023-04-25T12:00:10;62387.25;;;13.59
48628;BMP280;34424;52.234;6.500;2023-04-25T12:05:18;62383.16;;;13.38
48628;BMP280;34424;52.234;6.500;2023-04-25T12:10:37;62161.47;;;11.04
48628;BMP280;34424;52.234;6.500;2023-04-25T12:15:41;62046.75;;;10.29
48628;BMP280;34424;52.234;6.500;2023-04-25T12:20:44;62099.56;;;10.62
48628;BMP280;34424;52.234;6.500;2023-04-25T12:25:46;62172.97;;;11.55
48628;BMP280;34424;52.234;6.500;2023-04-25T12:30:58;62186.88;;;11.46
48628;BMP280;34424;52.234;6.500;2023-04-25T12:36:03;62211.00;;;12.01
48628;BMP280;34424;52.234;6.500;2023-04-25T12:41:10;62150.25;;;11.16
48628;BMP280;34424;52.234;6.500;2023-04-25T12:46:14;62235.22;;;12.09
48628;BMP280;34424;52.234;6.500;2023-04-25T12:51:16;62359.78;;;13.20
48628;BMP280;34424;52.234;6.500;2023-04-25T12:56:19;62391.53;;;13.66
48628;BMP280;34424;52.234;6.500;2023-04-25T13:01:27;62359.38;;;13.00
48628;BMP280;34424;52.234;6.500;2023-04-25T13:06:29;62263.28;;;12.28
48628;BMP280;34424;52.234;6.500;2023-04-25T13:11:32;62237.47;;;12.19
48628;BMP280;34424;52.234;6.500;2023-04-25T13:16:36;62224.94;;;11.92
48628;BMP280;34424;52.234;6.500;2023-04-25T13:21:40;62256.75;;;12.42
48628;BMP280;34424;52.234;6.500;2023-04-25T13:26:43;62209.66;;;12.12
48628;BMP280;34424;52.234;6.500;2023-04-25T13:31:47;62288.84;;;12.53
48628;BMP280;34424;52.234;6.500;2023-04-25T13:36:50;62386.84;;;13.39
48628;BMP280;34424;52.234;6.500;2023-04-25T13:41:52;62264.03;;;12.39
48628;BMP280;34424;52.234;6.500;2023-04-25T13:46:56;62094.16;;;10.52
48628;BMP280;34424;52.234;6.500;2023-04-25T13:52:00;62097.78;;;10.51
48628;BMP280;34424;52.234;6.500;2023-04-25T13:57:03;62198.09;;;11.59
48628;BMP280;34424;52.234;6.500;2023-04-25T14:02:07;62233.13;;;12.10
48628;BMP280;34424;52.234;6.500;2023-04-25T14:07:10;62214.63;;;11.99
48628;BMP280;34424;52.234;6.500;2023-04-25T14:12:13;62263.28;;;12.04
48628;BMP280;34424;52.234;6.500;2023-04-25T14:17:17;62192.22;;;11.51
48628;BMP280;34424;52.234;6.500;2023-04-25T14:22:20;62247.81;;;12.39
48628;BMP280;34424;52.234;6.500;2023-04-25T14:27:22;62265.75;;;12.21
48628;BMP280;34424;52.234;6.500;2023-04-25T14:32:29;62233.13;;;12.10
48628;BMP280;34424;52.234;6.500;2023-04-25T14:37:33;62268.91;;;12.49
48628;BMP280;34424;52.234;6.500;2023-04-25T14:42:36;62346.88;;;13.03
48628;BMP280;34424;52.234;6.500;2023-04-25T14:47:40;62403.22;;;13.47
48628;BMP280;34424;52.234;6.500;2023-04-25T14:52:44;62249.31;;;12.35
48628;BMP280;34424;52.234;6.500;2023-04-25T14:57:47;62230.16;;;11.92
48628;BMP280;34424;52.234;6.500;2023-04-25T15:02:51;62154.63;;;11.25
48628;BMP280;34424;52.234;6.500;2023-04-25T15:07:54;62161.53;;;11.31
48628;BMP280;34424;52.234;6.500;2023-04-25T15:12:57;62218.53;;;11.61
48628;BMP280;34424;52.234;6.500;2023-04-25T15:18:01;62215.53;;;11.93
48628;BMP280;34424;52.234;6.500;2023-04-25T15:23:03;62285.13;;;12.49
48628;BMP280;34424;52.234;6.500;2023-04-25T15:28:06;62315.38;;;12.98
48628;BMP280;34424;52.234;6.500;2023-04-25T15:33:11;62345.16;;;13.21
48628;BMP280;34424;52.234;6.500;2023-04-25T15:38:14;62385.25;;;13.65
48628;BMP280;34424;52.234;6.500;2023-04-25T15:43:17;62216.94;;;11.84
48628;BMP280;34424;52.234;6.500;2023-04-25T15:48:21;62107.03;;;10.69
48628;BMP280;34424;52.234;6.500;2023-04-25T15:53:23;62094.09;;;10.99
48628;BMP280;34424;52.234;6.500;2023-04-25T15:58:26;62189.53;;;11.73
48628;BMP280;34424;52.234;6.500;2023-04-25T16:03:31;62223.88;;;11.91
48628;BMP280;34424;52.234;6.500;2023-04-25T16:08:37;62267.72;;;12.15
48628;BMP280;34424;52.234;6.500;2023-04-25T16:13:39;62165.72;;;11.33
48628;BMP280;34424;52.234;6.500;2023-04-25T16:18:43;62164.47;;;11.47
48628;BMP280;34424;52.234;6.500;2023-04-25T16:23:46;62054.44;;;10.47
48628;BMP280;34424;52.234;6.500;2023-04-25T16:28:48;62064.63;;;10.61
48628;BMP280;34424;52.234;6.500;2023-04-25T16:33:52;62079.31;;;10.65
48628;BMP280;34424;52.234;6.500;2023-04-25T16:38:55;61993.41;;;9.71
48628;BMP280;34424;52.234;6.500;2023-04-25T16:43:58;61937.50;;;9.12
48628;BMP280;34424;52.234;6.500;2023-04-25T16:49:02;62005.09;;;9.82
48628;BMP280;34424;52.234;6.500;2023-04-25T16:54:04;61975.13;;;9.21
48628;BMP280;34424;52.234;6.500;2023-04-25T16:59:07;62011.47;;;9.63
48628;BMP280;34424;52.234;6.500;2023-04-25T17:04:11;61967.81;;;9.19
48628;BMP280;34424;52.234;6.500;2023-04-25T17:09:13;61892.53;;;8.54
48628;BMP280;34424;52.234;6.500;2023-04-25T17:14:16;61821.44;;;7.66
48628;BMP280;34424;52.234;6.500;2023-04-25T17:19:20;61768.31;;;6.93
48628;BMP280;34424;52.234;6.500;2023-04-25T17:24:23;61707.75;;;6.53
48628;BMP280;34424;52.234;6.500;2023-04-25T17:29:25;61716.81;;;6.41
48628;BMP280;34424;52.234;6.500;2023-04-25T17:34:29;61712.47;;;6.55
48628;BMP280;34424;52.234;6.500;2023-04-25T17:39:32;61700.63;;;6.58
48628;BMP280;34424;52.234;6.500;2023-04-25T17:44:35;61685.75;;;6.64
48628;BMP280;34424;52.234;6.500;2023-04-25T17:49:38;61727.97;;;6.74
48628;BMP280;34424;52.234;6.500;2023-04-25T17:54:41;61694.94;;;6.80
48628;BMP280;34424;52.234;6.500;2023-04-25T17:59:44;61731.69;;;6.78
48628;BMP280;34424;52.234;6.500;2023-04-25T18:04:48;61750.41;;;6.81
48628;BMP280;34424;52.234;6.500;2023-04-25T18:09:51;61721.25;;;6.75
48628;BMP280;34424;52.234;6.500;2023-04-25T18:14:53;61725.66;;;6.65
48628;BMP280;34424;52.234;6.500;2023-04-25T18:19:57;61711.47;;;6.56
48628;BMP280;34424;52.234;6.500;2023-04-25T18:25:02;61702.47;;;6.47
48628;BMP280;34424;52.234;6.500;2023-04-25T18:30:07;61695.31;;;6.11
48628;BMP280;34424;52.234;6.500;2023-04-25T18:35:12;61640.69;;;5.78
48628;BMP280;34424;52.234;6.500;2023-04-25T18:40:15;61592.78;;;5.45
48628;BMP280;34424;52.234;6.500;2023-04-25T18:45:17;61591.22;;;5.23
48628;BMP280;34424;52.234;6.500;2023-04-25T18:50:21;61552.41;;;5.01
48628;BMP280;34424;52.234;6.500;2023-04-25T18:55:26;61575.66;;;4.81
48628;BMP280;34424;52.234;6.500;2023-04-25T19:00:30;61525.59;;;4.63
48628;BMP280;34424;52.234;6.500;2023-04-25T19:05:34;61508.00;;;4.41
48628;BMP280;34424;52.234;6.500;2023-04-25T19:10:36;61476.50;;;4.21
48628;BMP280;34424;52.234;6.500;2023-04-25T19:15:40;61472.81;;;3.97
48628;BMP280;34424;52.234;6.500;2023-04-25T19:20:44;61472.66;;;3.92
48628;BMP280;34424;52.234;6.500;2023-04-25T19:25:46;61455.72;;;3.76
48628;BMP280;34424;52.234;6.500;2023-04-25T19:30:49;61466.97;;;3.72
48628;BMP280;34424;52.234;6.500;2023-04-25T19:35:53;61424.13;;;3.51
48628;BMP280;34424;52.234;6.500;2023-04-25T19:40:56;61432.03;;;3.38
48628;BMP280;34424;52.234;6.500;2023-04-25T19:45:59;61467.31;;;3.48
48628;BMP280;34424;52.234;6.500;2023-04-25T19:51:03;61436.22;;;3.60
48628;BMP280;34424;52.234;6.500;2023-04-25T19:56:07;61481.97;;;3.74
48628;BMP280;34424;52.234;6.500;2023-04-25T20:01:10;61432.69;;;3.81
48628;BMP280;34424;52.234;6.500;2023-04-25T20:06:14;61474.25;;;3.94
48628;BMP280;34424;52.234;6.500;2023-04-25T20:11:16;61498.94;;;4.10
48628;BMP280;34424;52.234;6.500;2023-04-25T20:16:19;61525.59;;;4.23
48628;BMP280;34424;52.234;6.500;2023-04-25T20:21:23;61518.66;;;4.34
48628;BMP280;34424;52.234;6.500;2023-04-25T20:26:27;61494.97;;;4.36
48628;BMP280;34424;52.234;6.500;2023-04-25T20:31:34;61484.59;;;4.34
48628;BMP280;34424;52.234;6.500;2023-04-25T20:36:38;61494.09;;;4.23
48628;BMP280;34424;52.234;6.500;2023-04-25T20:41:41;61481.13;;;4.00
48628;BMP280;34424;52.234;6.500;2023-04-25T20:46:45;61493.03;;;3.82
48628;BMP280;34424;52.234;6.500;2023-04-25T20:51:49;61449.66;;;4.00
48628;BMP280;34424;52.234;6.500;2023-04-25T20:56:52;61501.25;;;4.20
48628;BMP280;34424;52.234;6.500;2023-04-25T21:01:57;61495.50;;;4.17
48628;BMP280;34424;52.234;6.500;2023-04-25T21:07:01;61479.22;;;3.86
48628;BMP280;34424;52.234;6.500;2023-04-25T21:12:04;61441.97;;;3.63
48628;BMP280;34424;52.234;6.500;2023-04-25T21:17:07;61481.97;;;3.37
48628;BMP280;34424;52.234;6.500;2023-04-25T21:22:11;61415.75;;;3.08
48628;BMP280;34424;52.234;6.500;2023-04-25T21:27:13;61391.44;;;2.85
48628;BMP280;34424;52.234;6.500;2023-04-25T21:32:19;61361.03;;;2.65
48628;BMP280;34424;52.234;6.500;2023-04-25T21:37:23;61358.63;;;2.53
48628;BMP280;34424;52.234;6.500;2023-04-25T21:42:26;61332.31;;;2.50
48628;BMP280;34424;52.234;6.500;2023-04-25T21:47:29;61332.56;;;2.40
48628;BMP280;34424;52.234;6.500;2023-04-25T21:52:34;61326.91;;;2.23
48628;BMP280;34424;52.234;6.500;2023-04-25T21:57:37;61308.03;;;2.09
48628;BMP280;34424;52.234;6.500;2023-04-25T22:02:39;61307.56;;;2.11
48628;BMP280;34424;52.234;6.500;2023-04-25T22:07:43;61329.03;;;2.25
48628;BMP280;34424;52.234;6.500;2023-04-25T22:12:46;61342.47;;;2.28
48628;BMP280;34424;52.234;6.500;2023-04-25T22:17:51;61363.50;;;2.43
48628;BMP280;34424;52.234;6.500;2023-04-25T22:22:57;61371.63;;;2.58
48628;BMP280;34424;52.234;6.500;2023-04-25T22:27:59;61354.97;;;2.69
48628;BMP280;34424;52.234;6.500;2023-04-25T22:33:02;61397.47;;;2.81
48628;BMP280;34424;52.234;6.500;2023-04-25T22:38:06;61376.13;;;2.90
48628;BMP280;34424;52.234;6.500;2023-04-25T22:43:09;61365.75;;;2.87
48628;BMP280;34424;52.234;6.500;2023-04-25T22:48:13;61392.09;;;2.90
48628;BMP280;34424;52.234;6.500;2023-04-25T22:53:17;61382.72;;;2.86
48628;BMP280;34424;52.234;6.500;2023-04-25T22:58:20;61356.56;;;2.71
48628;BMP280;34424;52.234;6.500;2023-04-25T23:03:22;61328.88;;;2.37
48628;BMP280;34424;52.234;6.500;2023-04-25T23:08:26;61320.59;;;2.17
48628;BMP280;34424;52.234;6.500;2023-04-25T23:13:29;61317.72;;;1.89
48628;BMP280;34424;52.234;6.500;2023-04-25T23:18:34;61278.16;;;1.71
48628;BMP280;34424;52.234;6.500;2023-04-25T23:23:38;61268.88;;;1.52
48628;BMP280;34424;52.234;6.500;2023-04-25T23:28:41;61247.75;;;1.32
48628;BMP280;34424;52.234;6.500;2023-04-25T23:33:45;61220.13;;;1.17
48628;BMP280;34424;52.234;6.500;2023-04-25T23:38:49;61215.81;;;1.11
48628;BMP280;34424;52.234;6.500;2023-04-25T23:43:53;61220.81;;;1.06
48628;BMP280;34424;52.234;6.500;2023-04-25T23:48:56;61217.88;;;0.93
48628;BMP280;34424;52.234;6.500;2023-04-25T23:54:00;61200.59;;;0.81
48628;BMP280;34424;52.234;6.500;2023-04-25T23:59:05;61251.00;;;0.85
